sensor_id;sensor_type;location;lat;lon;timestamp;pressure;altitude;pressure_sealevel;temperature;humidity
10464;BME280;5279;42.048;24.638;2023-05-25T00:01:40;97384.50;;;16.10;93.78
10464;BME280;5279;42.048;24.638;2023-05-25T00:04:08;97383.94;;;16.00;95.40
10464;BME280;5279;42.048;24.638;2023-05-25T00:06:35;97386.97;;;15.97;92.19
10464;BME280;5279;42.048;24.638;2023-05-25T00:09:06;97383.56;;;16.03;91.99
10464;BME280;5279;42.048;24.638;2023-05-25T00:11:34;97389.84;;;16.10;89.64
10464;BME280;5279;42.048;24.638;2023-05-25T00:14:01;97378.78;;;16.13;90.66
10464;BME280;5279;42.048;24.638;2023-05-25T00:16:27;97371.97;;;16.11;95.21
10464;BME280;5279;42.048;24.638;2023-05-25T00:18:54;97378.94;;;15.97;98.23
10464;BME280;5279;42.048;24.638;2023-05-25T00:21:22;97371.66;;;15.76;100.00
10464;BME280;5279;42.048;24.638;2023-05-25T00:23:50;97372.50;;;15.77;99.93
10464;BME280;5279;42.048;24.638;2023-05-25T00:26:18;97366.94;;;15.64;100.00
10464;BME280;5279;42.048;24.638;2023-05-25T00:28:46;97376.34;;;15.37;100.00
10464;BME280;5279;42.048;24.638;2023-05-25T00:31:12;97377.53;;;15.35;100.00
10464;BME280;5279;42.048;24.638;2023-05-25T00:33:39;97375.78;;;15.42;100.00
10464;BME280;5279;42.048;24.638;2023-05-25T00:36:06;97377.53;;;15.35;100.00
10464;BME280;5279;42.048;24.638;2023-05-25T00:38:34;97375.84;;;15.33;100.00
10464;BME280;5279;42.048;24.638;2023-05-25T00:41:01;97374.53;;;15.29;100.00
10464;BME280;5279;42.048;24.638;2023-05-25T00:43:29;97373.72;;;15.29;100.00
10464;BME280;5279;42.048;24.638;2023-05-25T00:45:56;97372.25;;;15.26;100.00
10464;BME280;5279;42.048;24.638;2023-05-25T00:48:24;97385.66;;;15.18;100.00
10464;BME280;5279;42.048;24.638;2023-05-25T00:50:53;97371.13;;;15.21;100.00
10464;BME280;5279;42.048;24.638;2023-05-25T00:53:22;97375.22;;;15.09;100.00
10464;BME280;5279;42.048;24.638;2023-05-25T00:56:01;97367.56;;;15.06;100.00
10464;BME280;5279;42.048;24.638;2023-05-25T00:58:32;97377.72;;;15.10;100.00
10464;BME280;5279;42.048;24.638;2023-05-25T01:00:59;97380.41;;;15.10;100.00
10464;BME280;5279;42.048;24.638;2023-05-25T01:03:30;97375.41;;;15.07;100.00
10464;BME280;5279;42.048;24.638;2023-05-25T01:06:01;97378.47;;;14.96;100.00
10464;BME280;5279;42.048;24.638;2023-05-25T01:08:32;97368.94;;;14.79;100.00
10464;BME280;5279;42.048;24.638;2023-05-25T01:11:02;97372.56;;;14.86;100.00
10464;BME280;5279;42.048;24.638;2023-05-25T01:13:31;97375.50;;;14.91;100.00
10464;BME280;5279;42.048;24.638;2023-05-25T01:16:03;97371.78;;;15.00;100.00
10464;BME280;5279;42.048;24.638;2023-05-25T01:18:30;97372.06;;;15.05;100.00
10464;BME280;5279;42.048;24.638;2023-05-25T01:21:04;97372.13;;;14.97;100.00
10464;BME280;5279;42.048;24.638;2023-05-25T01:23:41;97378.81;;;14.93;100.00
10464;BME280;5279;42.048;24.638;2023-05-25T01:26:12;97363.19;;;14.90;100.00
10464;BME280;5279;42.048;24.638;2023-05-25T01:28:45;97366.88;;;14.89;100.00
10464;BME280;5279;42.048;24.638;2023-05-25T01:31:13;97369.69;;;14.88;100.00
10464;BME280;5279;42.048;24.638;2023-05-25T01:33:41;97370.97;;;14.69;100.00
10464;BME280;5279;42.048;24.638;2023-05-25T01:36:09;97371.13;;;14.75;100.00
10464;BME280;5279;42.048;24.638;2023-05-25T01:38:36;97371.94;;;14.76;100.00
10464;BME280;5279;42.048;24.638;2023-05-25T01:41:04;97359.81;;;14.65;100.00
10464;BME280;5279;42.048;24.638;2023-05-25T01:43:30;97361.91;;;14.78;100.00
10464;BME280;5279;42.048;24.638;2023-05-25T01:46:04;97362.69;;;14.87;100.00
10464;BME280;5279;42.048;24.638;2023-05-25T01:48:41;97362.09;;;14.99;100.00
10464;BME280;5279;42.048;24.638;2023-05-25T01:51:17;97363.91;;;15.07;100.00
10464;BME280;5279;42.048;24.638;2023-05-25T01:53:51;97362.47;;;15.19;100.00
10464;BME280;5279;42.048;24.638;2023-05-25T01:56:20;97360.56;;;15.27;100.00
10464;BME280;5279;42.048;24.638;2023-05-25T01:58:49;97360.00;;;15.32;100.00
10464;BME280;5279;42.048;24.638;2023-05-25T02:01:17;97357.91;;;15.27;100.00
10464;BME280;5279;42.048;24.638;2023-05-25T02:03:46;97365.19;;;15.33;100.00
10464;BME280;5279;42.048;24.638;2023-05-25T02:06:16;97371.47;;;15.41;100.00
10464;BME280;5279;42.048;24.638;2023-05-25T02:08:42;97363.50;;;15.32;100.00
10464;BME280;5279;42.048;24.638;2023-05-25T02:11:11;97365.94;;;15.42;100.00
10464;BME280;5279;42.048;24.638;2023-05-25T02:13:38;97373.72;;;15.52;100.00
10464;BME280;5279;42.048;24.638;2023-05-25T02:16:06;97375.75;;;15.50;100.00
10464;BME280;5279;42.048;24.638;2023-05-25T02:18:33;97378.91;;;15.53;100.00
10464;BME280;5279;42.048;24.638;2023-05-25T02:21:00;97379.81;;;15.60;100.00
10464;BME280;5279;42.048;24.638;2023-05-25T02:23:29;97380.41;;;15.70;100.00
10464;BME280;5279;42.048;24.638;2023-05-25T02:25:56;97379.09;;;15.81;94.19
10464;BME280;5279;42.048;24.638;2023-05-25T02:28:23;97374.59;;;15.81;100.00
10464;BME280;5279;42.048;24.638;2023-05-25T02:30:50;97364.47;;;15.77;100.00
10464;BME280;5279;42.048;24.638;2023-05-25T02:33:17;97362.03;;;15.53;98.38
10464;BME280;5279;42.048;24.638;2023-05-25T02:35:53;97373.59;;;15.68;100.00
10464;BME280;5279;42.048;24.638;2023-05-25T02:38:50;97380.50;;;15.77;98.08
10464;BME280;5279;42.048;24.638;2023-05-25T02:41:17;97381.16;;;15.79;100.00
10464;BME280;5279;42.048;24.638;2023-05-25T02:43:45;97383.28;;;15.83;100.00
10464;BME280;5279;42.048;24.638;2023-05-25T02:46:12;97383.56;;;15.89;96.56
10464;BME280;5279;42.048;24.638;2023-05-25T02:48:40;97386.22;;;15.89;100.00
10464;BME280;5279;42.048;24.638;2023-05-25T02:51:08;97398.13;;;15.86;96.52
10464;BME280;5279;42.048;24.638;2023-05-25T02:53:34;97388.63;;;15.83;97.03
10464;BME280;5279;42.048;24.638;2023-05-25T02:56:03;97390.09;;;15.86;98.34
10464;BME280;5279;42.048;24.638;2023-05-25T02:58:30;97393.78;;;15.85;98.09
10464;BME280;5279;42.048;24.638;2023-05-25T03:00:57;97393.66;;;15.78;94.35
10464;BME280;5279;42.048;24.638;2023-05-25T03:03:25;97394.41;;;15.87;93.61
10464;BME280;5279;42.048;24.638;2023-05-25T03:05:52;97393.78;;;15.85;94.47
10464;BME280;5279;42.048;24.638;2023-05-25T03:08:19;97391.56;;;15.89;93.03
10464;BME280;5279;42.048;24.638;2023-05-25T03:10:46;97392.03;;;15.92;93.42
10464;BME280;5279;42.048;24.638;2023-05-25T03:13:14;97398.28;;;15.99;92.34
10464;BME280;5279;42.048;24.638;2023-05-25T03:15:41;97392.50;;;15.96;92.03
10464;BME280;5279;42.048;24.638;2023-05-25T03:18:08;97397.13;;;16.02;92.06
10464;BME280;5279;42.048;24.638;2023-05-25T03:20:35;97398.84;;;16.09;89.10
10464;BME280;5279;42.048;24.638;2023-05-25T03:23:02;97398.38;;;16.20;88.36
10464;BME280;5279;42.048;24.638;2023-05-25T03:25:28;97402.00;;;16.27;86.68
10464;BME280;5279;42.048;24.638;2023-05-25T03:27:55;97402.81;;;16.42;87.83
10464;BME280;5279;42.048;24.638;2023-05-25T03:30:24;97407.41;;;16.49;90.66
10464;BME280;5279;42.048;24.638;2023-05-25T03:32:51;97410.34;;;16.54;88.17
10464;BME280;5279;42.048;24.638;2023-05-25T03:35:18;97398.69;;;16.55;91.85
10464;BME280;5279;42.048;24.638;2023-05-25T03:37:45;97409.84;;;16.58;89.56
10464;BME280;5279;42.048;24.638;2023-05-25T03:40:12;97401.53;;;16.53;88.55
10464;BME280;5279;42.048;24.638;2023-05-25T03:42:39;97407.13;;;16.73;87.69
10464;BME280;5279;42.048;24.638;2023-05-25T03:45:06;97405.75;;;16.77;88.39
10464;BME280;5279;42.048;24.638;2023-05-25T03:47:35;97404.25;;;16.89;87.19
10464;BME280;5279;42.048;24.638;2023-05-25T03:50:09;97410.69;;;16.94;85.88
10464;BME280;5279;42.048;24.638;2023-05-25T03:52:36;97404.19;;;17.04;85.55
10464;BME280;5279;42.048;24.638;2023-05-25T03:55:05;97408.84;;;17.16;88.44
10464;BME280;5279;42.048;24.638;2023-05-25T03:57:32;97409.38;;;17.26;87.71
10464;BME280;5279;42.048;24.638;2023-05-25T03:59:58;97408.03;;;17.37;87.40
10464;BME280;5279;42.048;24.638;2023-05-25T04:02:25;97406.44;;;17.42;84.79
10464;BME280;5279;42.048;24.638;2023-05-25T04:04:53;97405.03;;;17.46;86.42
10464;BME280;5279;42.048;24.638;2023-05-25T04:07:21;97405.41;;;17.43;84.25
10464;BME280;5279;42.048;24.638;2023-05-25T04:09:48;97400.97;;;17.51;83.16
10464;BME280;5279;42.048;24.638;2023-05-25T04:12:15;97409.88;;;17.58;83.28
10464;BME280;5279;42.048;24.638;2023-05-25T04:14:43;97400.56;;;17.54;82.43
10464;BME280;5279;42.048;24.638;2023-05-25T04:17:10;97408.44;;;17.55;84.87
10464;BME280;5279;42.048;24.638;2023-05-25T04:19:37;97417.03;;;17.51;84.18
10464;BME280;5279;42.048;24.638;2023-05-25T04:22:05;97413.41;;;17.58;85.03
10464;BME280;5279;42.048;24.638;2023-05-25T04:24:32;97413.31;;;17.73;85.66
10464;BME280;5279;42.048;24.638;2023-05-25T04:26:59;97416.72;;;17.88;81.04
10464;BME280;5279;42.048;24.638;2023-05-25T04:29:27;97422.31;;;17.86;80.92
10464;BME280;5279;42.048;24.638;2023-05-25T04:31:56;97421.97;;;17.96;81.07
10464;BME280;5279;42.048;24.638;2023-05-25T04:34:23;97420.59;;;18.07;82.86
10464;BME280;5279;42.048;24.638;2023-05-25T04:36:50;97420.47;;;18.21;81.61
10464;BME280;5279;42.048;24.638;2023-05-25T04:39:19;97423.47;;;18.39;79.87
10464;BME280;5279;42.048;24.638;2023-05-25T04:41:46;97419.47;;;18.57;81.75
10464;BME280;5279;42.048;24.638;2023-05-25T04:44:13;97417.31;;;18.80;82.71
10464;BME280;5279;42.048;24.638;2023-05-25T04:46:40;97408.50;;;18.99;84.43
10464;BME280;5279;42.048;24.638;2023-05-25T04:49:09;97421.78;;;19.20;81.22
10464;BME280;5279;42.048;24.638;2023-05-25T04:51:37;97417.25;;;19.34;79.07
10464;BME280;5279;42.048;24.638;2023-05-25T04:54:04;97423.50;;;19.41;76.41
10464;BME280;5279;42.048;24.638;2023-05-25T04:56:33;97416.91;;;19.56;76.84
10464;BME280;5279;42.048;24.638;2023-05-25T04:59:00;97420.63;;;19.69;77.42
10464;BME280;5279;42.048;24.638;2023-05-25T05:01:28;97415.28;;;19.82;76.80
10464;BME280;5279;42.048;24.638;2023-05-25T05:03:54;97414.84;;;19.98;76.39
10464;BME280;5279;42.048;24.638;2023-05-25T05:06:21;97419.78;;;20.14;74.16
10464;BME280;5279;42.048;24.638;2023-05-25T05:08:50;97427.03;;;20.33;73.61
10464;BME280;5279;42.048;24.638;2023-05-25T05:11:16;97422.50;;;20.27;70.17
10464;BME280;5279;42.048;24.638;2023-05-25T05:13:45;97415.63;;;20.31;70.17
10464;BME280;5279;42.048;24.638;2023-05-25T05:16:12;97422.88;;;20.37;68.62
10464;BME280;5279;42.048;24.638;2023-05-25T05:18:39;97424.94;;;20.48;70.71
10464;BME280;5279;42.048;24.638;2023-05-25T05:21:06;97418.47;;;20.62;72.49
10464;BME280;5279;42.048;24.638;2023-05-25T05:23:32;97419.69;;;20.73;72.89
10464;BME280;5279;42.048;24.638;2023-05-25T05:26:00;97422.94;;;20.88;74.39
10464;BME280;5279;42.048;24.638;2023-05-25T05:28:29;97428.06;;;21.03;72.94
10464;BME280;5279;42.048;24.638;2023-05-25T05:30:57;97427.00;;;21.10;70.90
10464;BME280;5279;42.048;24.638;2023-05-25T05:33:24;97428.19;;;21.21;65.37
10464;BME280;5279;42.048;24.638;2023-05-25T05:35:51;97431.41;;;21.36;65.08
10464;BME280;5279;42.048;24.638;2023-05-25T05:38:19;97432.53;;;21.53;67.55
10464;BME280;5279;42.048;24.638;2023-05-25T05:40:46;97431.25;;;21.62;67.33
10464;BME280;5279;42.048;24.638;2023-05-25T05:43:13;97420.81;;;21.72;69.82
10464;BME280;5279;42.048;24.638;2023-05-25T05:45:40;97426.50;;;21.89;68.80
10464;BME280;5279;42.048;24.638;2023-05-25T05:48:09;97416.88;;;22.00;74.93
10464;BME280;5279;42.048;24.638;2023-05-25T05:50:36;97423.34;;;22.17;75.79
10464;BME280;5279;42.048;24.638;2023-05-25T05:53:03;97428.63;;;22.30;73.09
10464;BME280;5279;42.048;24.638;2023-05-25T05:55:29;97433.28;;;22.41;67.55
10464;BME280;5279;42.048;24.638;2023-05-25T05:57:57;97440.34;;;22.60;67.23
10464;BME280;5279;42.048;24.638;2023-05-25T06:00:24;97440.16;;;22.80;68.26
10464;BME280;5279;42.048;24.638;2023-05-25T06:02:51;97435.34;;;23.00;68.95
10464;BME280;5279;42.048;24.638;2023-05-25T06:05:19;97430.75;;;23.19;66.30
10464;BME280;5279;42.048;24.638;2023-05-25T06:07:46;97426.34;;;23.36;62.70
10464;BME280;5279;42.048;24.638;2023-05-25T06:10:13;97431.00;;;23.47;66.91
10464;BME280;5279;42.048;24.638;2023-05-25T06:12:40;97426.22;;;23.61;67.86
10464;BME280;5279;42.048;24.638;2023-05-25T06:15:08;97429.50;;;23.63;65.28
10464;BME280;5279;42.048;24.638;2023-05-25T06:17:35;97428.38;;;23.70;66.95
10464;BME280;5279;42.048;24.638;2023-05-25T06:20:02;97420.25;;;23.70;64.99
10464;BME280;5279;42.048;24.638;2023-05-25T06:22:32;97432.78;;;23.94;66.61
10464;BME280;5279;42.048;24.638;2023-05-25T06:24:59;97436.06;;;23.97;62.65
10464;BME280;5279;42.048;24.638;2023-05-25T06:27:26;97426.63;;;23.87;68.46
10464;BME280;5279;42.048;24.638;2023-05-25T06:29:53;97433.53;;;23.72;68.36
10464;BME280;5279;42.048;24.638;2023-05-25T06:32:20;97428.69;;;23.62;69.37
10464;BME280;5279;42.048;24.638;2023-05-25T06:34:46;97436.09;;;23.55;69.17
10464;BME280;5279;42.048;24.638;2023-05-25T06:37:13;97443.28;;;23.61;63.33
10464;BME280;5279;42.048;24.638;2023-05-25T06:42:58;97438.78;;;23.55;69.61
10464;BME280;5279;42.048;24.638;2023-05-25T06:45:25;97439.16;;;23.59;72.99
10464;BME280;5279;42.048;24.638;2023-05-25T06:47:52;97445.16;;;23.31;78.57
10464;BME280;5279;42.048;24.638;2023-05-25T06:50:19;97442.59;;;23.18;69.44
10464;BME280;5279;42.048;24.638;2023-05-25T06:52:46;97443.34;;;23.25;77.82
10464;BME280;5279;42.048;24.638;2023-05-25T06:55:13;97447.03;;;23.60;59.96
10464;BME280;5279;42.048;24.638;2023-05-25T06:57:40;97441.00;;;24.00;54.61
10464;BME280;5279;42.048;24.638;2023-05-25T07:00:11;97432.72;;;24.24;54.16
10464;BME280;5279;42.048;24.638;2023-05-25T07:02:38;97437.53;;;24.34;50.22
10464;BME280;5279;42.048;24.638;2023-05-25T07:05:05;97432.47;;;24.49;50.35
10464;BME280;5279;42.048;24.638;2023-05-25T07:07:32;97433.03;;;24.51;51.24
10464;BME280;5279;42.048;24.638;2023-05-25T07:10:00;97422.56;;;24.55;49.35
10464;BME280;5279;42.048;24.638;2023-05-25T07:12:27;97437.72;;;24.79;51.51
10464;BME280;5279;42.048;24.638;2023-05-25T07:14:54;97446.69;;;24.79;47.42
10464;BME280;5279;42.048;24.638;2023-05-25T07:17:22;97438.28;;;25.04;47.54
10464;BME280;5279;42.048;24.638;2023-05-25T07:19:49;97449.19;;;25.21;53.00
10464;BME280;5279;42.048;24.638;2023-05-25T07:22:16;97444.47;;;25.28;56.21
10464;BME280;5279;42.048;24.638;2023-05-25T07:24:43;97437.09;;;25.40;60.19
10464;BME280;5279;42.048;24.638;2023-05-25T07:27:10;97437.66;;;25.53;56.51
10464;BME280;5279;42.048;24.638;2023-05-25T07:29:38;97428.44;;;25.54;53.27
10464;BME280;5279;42.048;24.638;2023-05-25T07:32:06;97429.28;;;25.55;58.11
10464;BME280;5279;42.048;24.638;2023-05-25T07:34:34;97436.53;;;25.66;58.29
10464;BME280;5279;42.048;24.638;2023-05-25T07:37:01;97432.06;;;25.60;56.58
10464;BME280;5279;42.048;24.638;2023-05-25T07:39:28;97436.88;;;25.70;57.17
10464;BME280;5279;42.048;24.638;2023-05-25T07:41:55;97440.75;;;25.90;56.99
10464;BME280;5279;42.048;24.638;2023-05-25T07:44:22;97441.94;;;26.11;54.93
10464;BME280;5279;42.048;24.638;2023-05-25T07:46:49;97438.81;;;26.36;56.73
10464;BME280;5279;42.048;24.638;2023-05-25T07:49:15;97438.25;;;26.34;54.61
10464;BME280;5279;42.048;24.638;2023-05-25T07:51:47;97448.28;;;26.50;54.77
10464;BME280;5279;42.048;24.638;2023-05-25T07:54:14;97441.47;;;26.69;54.90
10464;BME280;5279;42.048;24.638;2023-05-25T07:56:40;97444.56;;;26.94;54.39
10464;BME280;5279;42.048;24.638;2023-05-25T07:59:07;97443.75;;;27.15;52.52
10464;BME280;5279;42.048;24.638;2023-05-25T08:01:34;97445.44;;;27.22;52.06
10464;BME280;5279;42.048;24.638;2023-05-25T08:04:01;97453.38;;;27.01;49.55
10464;BME280;5279;42.048;24.638;2023-05-25T08:06:28;97441.97;;;27.04;52.14
10464;BME280;5279;42.048;24.638;2023-05-25T08:09:13;97447.59;;;27.20;53.12
10464;BME280;5279;42.048;24.638;2023-05-25T08:11:40;97455.00;;;27.02;48.74
10464;BME280;5279;42.048;24.638;2023-05-25T08:14:09;97456.09;;;27.01;45.54
10464;BME280;5279;42.048;24.638;2023-05-25T08:16:36;97450.97;;;27.05;49.37
10464;BME280;5279;42.048;24.638;2023-05-25T08:19:03;97447.97;;;27.06;51.26
10464;BME280;5279;42.048;24.638;2023-05-25T08:21:30;97447.34;;;27.21;48.65
10464;BME280;5279;42.048;24.638;2023-05-25T08:23:59;97450.25;;;27.58;49.01
10464;BME280;5279;42.048;24.638;2023-05-25T08:26:29;97435.59;;;27.64;48.11
10464;BME280;5279;42.048;24.638;2023-05-25T08:28:57;97435.03;;;27.89;46.00
10464;BME280;5279;42.048;24.638;2023-05-25T08:31:23;97433.78;;;28.01;47.18
10464;BME280;5279;42.048;24.638;2023-05-25T08:33:50;97437.19;;;28.13;45.95
10464;BME280;5279;42.048;24.638;2023-05-25T08:36:18;97440.63;;;28.36;46.50
10464;BME280;5279;42.048;24.638;2023-05-25T08:38:45;97434.69;;;28.49;47.90
10464;BME280;5279;42.048;24.638;2023-05-25T08:41:12;97444.44;;;28.71;46.21
10464;BME280;5279;42.048;24.638;2023-05-25T08:43:40;97439.38;;;28.95;43.98
10464;BME280;5279;42.048;24.638;2023-05-25T08:46:08;97433.72;;;29.12;43.63
10464;BME280;5279;42.048;24.638;2023-05-25T08:48:36;97439.88;;;28.87;42.28
10464;BME280;5279;42.048;24.638;2023-05-25T08:51:06;97437.09;;;28.72;43.26
10464;BME280;5279;42.048;24.638;2023-05-25T08:53:35;97432.59;;;28.61;43.24
10464;BME280;5279;42.048;24.638;2023-05-25T08:56:11;97428.78;;;28.62;44.26
10464;BME280;5279;42.048;24.638;2023-05-25T08:58:45;97433.28;;;28.78;42.39
10464;BME280;5279;42.048;24.638;2023-05-25T09:01:17;97439.38;;;28.95;42.65
10464;BME280;5279;42.048;24.638;2023-05-25T09:03:46;97430.97;;;29.07;43.19
10464;BME280;5279;42.048;24.638;2023-05-25T09:06:15;97433.00;;;29.37;42.18
10464;BME280;5279;42.048;24.638;2023-05-25T09:08:45;97440.66;;;29.40;42.05
10464;BME280;5279;42.048;24.638;2023-05-25T09:11:12;97435.81;;;29.62;44.19
10464;BME280;5279;42.048;24.638;2023-05-25T09:13:41;97433.09;;;29.57;41.98
10464;BME280;5279;42.048;24.638;2023-05-25T09:16:08;97426.00;;;29.71;44.34
10464;BME280;5279;42.048;24.638;2023-05-25T09:18:35;97433.66;;;29.69;42.12
10464;BME280;5279;42.048;24.638;2023-05-25T09:21:02;97428.78;;;29.96;42.17
10464;BME280;5279;42.048;24.638;2023-05-25T09:23:30;97429.06;;;30.00;38.74
10464;BME280;5279;42.048;24.638;2023-05-25T09:25:57;97425.78;;;30.08;40.64
10464;BME280;5279;42.048;24.638;2023-05-25T09:28:24;97421.69;;;29.95;36.50
10464;BME280;5279;42.048;24.638;2023-05-25T09:30:52;97423.88;;;30.13;37.97
10464;BME280;5279;42.048;24.638;2023-05-25T09:33:19;97414.31;;;30.41;36.84
10464;BME280;5279;42.048;24.638;2023-05-25T09:35:46;97417.28;;;30.34;36.37
10464;BME280;5279;42.048;24.638;2023-05-25T09:38:13;97418.41;;;30.33;34.70
10464;BME280;5279;42.048;24.638;2023-05-25T09:40:41;97417.84;;;30.37;33.97
10464;BME280;5279;42.048;24.638;2023-05-25T09:43:08;97417.84;;;30.37;36.44
10464;BME280;5279;42.048;24.638;2023-05-25T09:45:35;97414.59;;;30.24;35.95
10464;BME280;5279;42.048;24.638;2023-05-25T09:48:05;97411.84;;;30.24;36.86
10464;BME280;5279;42.048;24.638;2023-05-25T09:50:32;97408.56;;;30.22;36.36
10464;BME280;5279;42.048;24.638;2023-05-25T09:53:00;97415.13;;;29.96;36.87
10464;BME280;5279;42.048;24.638;2023-05-25T09:55:28;97409.13;;;30.24;38.23
10464;BME280;5279;42.048;24.638;2023-05-25T09:57:56;97410.16;;;30.59;36.76
10464;BME280;5279;42.048;24.638;2023-05-25T10:00:23;97404.66;;;30.79;34.19
10464;BME280;5279;42.048;24.638;2023-05-25T10:02:51;97399.47;;;30.67;34.52
10464;BME280;5279;42.048;24.638;2023-05-25T10:05:19;97384.94;;;30.87;35.52
10464;BME280;5279;42.048;24.638;2023-05-25T10:07:47;97393.94;;;30.93;32.75
10464;BME280;5279;42.048;24.638;2023-05-25T10:10:15;97379.94;;;31.09;34.73
10464;BME280;5279;42.048;24.638;2023-05-25T10:12:43;97374.44;;;31.14;34.55
10464;BME280;5279;42.048;24.638;2023-05-25T10:15:11;97373.28;;;31.25;34.86
10464;BME280;5279;42.048;24.638;2023-05-25T10:17:43;97368.34;;;31.22;36.25
10464;BME280;5279;42.048;24.638;2023-05-25T10:20:12;97366.28;;;30.99;35.07
10464;BME280;5279;42.048;24.638;2023-05-25T10:22:45;97370.81;;;30.45;35.94
10464;BME280;5279;42.048;24.638;2023-05-25T10:25:17;97368.03;;;30.65;35.93
10464;BME280;5279;42.048;24.638;2023-05-25T10:27:47;97368.91;;;30.35;37.87
10464;BME280;5279;42.048;24.638;2023-05-25T10:30:17;97369.75;;;30.05;36.04
10464;BME280;5279;42.048;24.638;2023-05-25T10:32:45;97378.53;;;29.82;37.03
10464;BME280;5279;42.048;24.638;2023-05-25T10:35:13;97392.91;;;29.47;37.17
10464;BME280;5279;42.048;24.638;2023-05-25T10:37:42;97391.81;;;29.33;37.52
10464;BME280;5279;42.048;24.638;2023-05-25T10:40:12;97390.75;;;29.54;37.99
10464;BME280;5279;42.048;24.638;2023-05-25T10:42:40;97395.97;;;29.81;35.31
10464;BME280;5279;42.048;24.638;2023-05-25T10:45:08;97391.34;;;30.17;38.28
10464;BME280;5279;42.048;24.638;2023-05-25T10:47:40;97397.63;;;30.32;36.00
10464;BME280;5279;42.048;24.638;2023-05-25T10:50:18;97389.41;;;30.22;35.62
10464;BME280;5279;42.048;24.638;2023-05-25T10:52:56;97370.28;;;29.57;36.18
10464;BME280;5279;42.048;24.638;2023-05-25T10:55:24;97377.25;;;29.17;36.10
10464;BME280;5279;42.048;24.638;2023-05-25T10:58:06;97380.47;;;28.99;37.47
10464;BME280;5279;42.048;24.638;2023-05-25T11:00:34;97386.88;;;28.73;37.25
10464;BME280;5279;42.048;24.638;2023-05-25T11:03:01;97382.88;;;28.44;37.32
10464;BME280;5279;42.048;24.638;2023-05-25T11:05:32;97386.38;;;28.39;37.88
10464;BME280;5279;42.048;24.638;2023-05-25T11:08:01;97373.44;;;28.14;38.34
10464;BME280;5279;42.048;24.638;2023-05-25T11:10:51;97381.09;;;27.91;38.95
10464;BME280;5279;42.048;24.638;2023-05-25T11:13:33;97386.38;;;27.71;41.88
10464;BME280;5279;42.048;24.638;2023-05-25T11:16:20;97386.59;;;27.64;43.85
10464;BME280;5279;42.048;24.638;2023-05-25T11:18:52;97381.31;;;27.52;42.18
10464;BME280;5279;42.048;24.638;2023-05-25T11:21:40;97389.50;;;27.31;41.41
10464;BME280;5279;42.048;24.638;2023-05-25T11:24:13;97386.72;;;27.26;42.08
10464;BME280;5279;42.048;24.638;2023-05-25T11:26:55;97380.16;;;27.22;45.24
10464;BME280;5279;42.048;24.638;2023-05-25T11:29:22;97383.25;;;27.08;44.77
10464;BME280;5279;42.048;24.638;2023-05-25T11:31:52;97391.31;;;26.98;46.80
10464;BME280;5279;42.048;24.638;2023-05-25T11:34:20;97393.94;;;26.93;44.98
10464;BME280;5279;42.048;24.638;2023-05-25T11:36:52;97382.97;;;26.83;47.85
10464;BME280;5279;42.048;24.638;2023-05-25T11:39:21;97385.13;;;26.65;47.69
10464;BME280;5279;42.048;24.638;2023-05-25T11:41:51;97385.25;;;26.53;47.52
10464;BME280;5279;42.048;24.638;2023-05-25T11:44:26;97384.72;;;26.34;49.31
10464;BME280;5279;42.048;24.638;2023-05-25T11:46:54;97383.75;;;26.24;51.26
10464;BME280;5279;42.048;24.638;2023-05-25T12:07:53;97383.13;;;24.35;86.24
10464;BME280;5279;42.048;24.638;2023-05-25T12:10:20;97382.63;;;24.04;84.89
10464;BME280;5279;42.048;24.638;2023-05-25T12:12:48;97381.28;;;23.60;96.36
10464;BME280;5279;42.048;24.638;2023-05-25T12:15:19;97377.50;;;23.49;94.22
10464;BME280;5279;42.048;24.638;2023-05-25T12:17:47;97375.97;;;23.53;99.90
10464;BME280;5279;42.048;24.638;2023-05-25T12:20:15;97372.81;;;23.56;100.00
10464;BME280;5279;42.048;24.638;2023-05-25T12:22:43;97378.25;;;23.68;100.00
10464;BME280;5279;42.048;24.638;2023-05-25T12:25:13;97376.97;;;23.82;100.00
10464;BME280;5279;42.048;24.638;2023-05-25T12:27:43;97375.69;;;23.96;97.89
10464;BME280;5279;42.048;24.638;2023-05-25T12:30:10;97372.97;;;24.08;100.00
10464;BME280;5279;42.048;24.638;2023-05-25T12:32:52;97368.78;;;24.12;95.83
10464;BME280;5279;42.048;24.638;2023-05-25T12:35:19;97368.03;;;24.05;99.21
10464;BME280;5279;42.048;24.638;2023-05-25T12:37:46;97373.72;;;24.15;89.50
10464;BME280;5279;42.048;24.638;2023-05-25T12:40:18;97370.97;;;24.38;82.73
10464;BME280;5279;42.048;24.638;2023-05-25T12:42:54;97374.63;;;24.55;80.96
10464;BME280;5279;42.048;24.638;2023-05-25T12:45:21;97363.72;;;24.78;77.83
10464;BME280;5279;42.048;24.638;2023-05-25T12:47:48;97362.81;;;25.13;73.52
10464;BME280;5279;42.048;24.638;2023-05-25T12:50:16;97371.13;;;25.51;74.46
10464;BME280;5279;42.048;24.638;2023-05-25T12:52:44;97368.53;;;25.89;72.47
10464;BME280;5279;42.048;24.638;2023-05-25T12:55:23;97371.25;;;26.23;78.09
10464;BME280;5279;42.048;24.638;2023-05-25T12:57:54;97369.47;;;26.33;64.39
10464;BME280;5279;42.048;24.638;2023-05-25T13:00:23;97375.97;;;26.49;58.75
10464;BME280;5279;42.048;24.638;2023-05-25T13:02:51;97374.31;;;26.70;56.87
10464;BME280;5279;42.048;24.638;2023-05-25T13:05:20;97369.22;;;26.73;60.06
10464;BME280;5279;42.048;24.638;2023-05-25T13:07:47;97373.47;;;26.86;63.38
10464;BME280;5279;42.048;24.638;2023-05-25T13:10:15;97357.22;;;26.91;68.85
10464;BME280;5279;42.048;24.638;2023-05-25T13:12:44;97361.81;;;26.90;65.21
10464;BME280;5279;42.048;24.638;2023-05-25T13:15:14;97366.75;;;26.93;65.80
10464;BME280;5279;42.048;24.638;2023-05-25T13:17:42;97355.47;;;26.80;58.35
10464;BME280;5279;42.048;24.638;2023-05-25T13:20:11;97375.44;;;26.90;56.28
10464;BME280;5279;42.048;24.638;2023-05-25T13:22:38;97366.84;;;26.98;60.34
10464;BME280;5279;42.048;24.638;2023-05-25T13:25:06;97359.88;;;27.07;55.34
10464;BME280;5279;42.048;24.638;2023-05-25T13:27:34;97349.63;;;27.14;51.88